Time;durP1;ratioP1;P1;durP2;ratioP2;P2;SDS_P1;SDS_P2;PMS_P1;PMS_P2;Temp;Humidity;BMP_temperature;BMP_pressure;BME280_temperature;BME280_humidity;BME280_pressure;Samples;Min_cycle;Max_cycle;Signal;HPM_P1;HPM_P2
2023/12/10 00:01:15;;;;;;;20.73;4.00;;;8.90;99.90;;;;;;5028488;28;20054;-65
2023/12/10 00:03:41;;;;;;;13.90;3.90;;;8.70;99.90;;;;;;5027899;28;20060;-65
2023/12/10 00:06:08;;;;;;;14.35;3.47;;;8.80;99.90;;;;;;5044627;28;20053;-65
2023/12/10 00:08:34;;;;;;;15.48;3.30;;;8.70;99.90;;;;;;5030933;28;20053;-65
2023/12/10 00:11:01;;;;;;;18.77;4.13;;;8.80;99.90;;;;;;5048106;28;20049;-65
2023/12/10 00:13:27;;;;;;;17.73;3.85;;;8.70;99.90;;;;;;5031905;28;20428;-65
2023/12/10 00:15:53;;;;;;;12.95;3.60;;;8.80;99.90;;;;;;5048638;28;20049;-65
2023/12/10 00:18:19;;;;;;;14.95;3.65;;;8.70;99.90;;;;;;5031974;28;20128;-65
2023/12/10 00:20:46;;;;;;;18.30;4.13;;;8.70;99.90;;;;;;5031870;28;20064;-65
2023/12/10 00:23:12;;;;;;;16.63;3.92;;;8.90;99.90;;;;;;5031737;28;20056;-64
2023/12/10 00:25:39;;;;;;;19.17;4.03;;;8.90;99.90;;;;;;5032019;28;20068;-66
2023/12/10 00:28:05;;;;;;;18.15;3.85;;;8.90;99.90;;;;;;5031618;28;20057;-65
2023/12/10 00:30:32;;;;;;;17.88;4.50;;;9.00;99.90;;;;;;5048025;28;20049;-65
2023/12/10 00:32:58;;;;;;;20.48;4.05;;;9.00;99.90;;;;;;5031867;28;20467;-65
2023/12/10 00:35:24;;;;;;;18.08;4.15;;;8.90;99.90;;;;;;5047759;28;20053;-65
2023/12/10 00:37:51;;;;;;;13.27;4.45;;;8.80;99.90;;;;;;5031100;28;20774;-65
2023/12/10 00:40:17;;;;;;;15.93;4.43;;;8.90;99.90;;;;;;5031469;28;20041;-65
2023/12/10 00:42:44;;;;;;;16.83;4.00;;;8.60;99.90;;;;;;5031745;28;20056;-66
2023/12/10 00:45:10;;;;;;;18.70;4.50;;;8.50;99.90;;;;;;5064183;28;20741;-65
2023/12/10 00:47:37;;;;;;;12.20;4.30;;;8.60;99.90;;;;;;5030992;28;20049;-65
2023/12/10 00:50:04;;;;;;;13.25;2.95;;;8.40;99.90;;;;;;5047632;28;20052;-65
2023/12/10 00:52:33;;;;;;;11.88;2.78;;;8.30;99.90;;;;;;5031364;28;20136;-67
2023/12/10 00:55:00;;;;;;;14.85;3.63;;;8.40;99.90;;;;;;5031050;28;20049;-65
2023/12/10 00:57:26;;;;;;;13.95;2.95;;;8.50;99.90;;;;;;5047408;28;20262;-65
2023/12/10 00:59:53;;;;;;;11.52;2.67;;;8.30;99.90;;;;;;5031377;28;20053;-66
2023/12/10 01:02:22;;;;;;;13.63;2.88;;;8.40;99.90;;;;;;5047400;28;20057;-65
2023/12/10 01:04:48;;;;;;;13.48;2.95;;;8.10;99.90;;;;;;5030697;28;20056;-65
2023/12/10 01:07:16;;;;;;;14.48;3.47;;;8.20;99.90;;;;;;5047305;28;20442;-65
2023/12/10 01:09:42;;;;;;;16.20;3.65;;;8.40;99.90;;;;;;5031243;28;20092;-65
2023/12/10 01:12:09;;;;;;;14.93;3.53;;;8.20;99.90;;;;;;5030792;28;20049;-65
2023/12/10 01:14:37;;;;;;;14.68;2.78;;;8.30;99.90;;;;;;5030615;28;20049;-65
2023/12/10 01:17:04;;;;;;;15.05;3.53;;;8.20;99.90;;;;;;5030469;28;20249;-65
2023/12/10 01:19:30;;;;;;;17.55;4.72;;;8.10;99.90;;;;;;5031507;28;20050;-65
2023/12/10 01:21:57;;;;;;;14.98;4.13;;;8.10;99.90;;;;;;5030122;28;20064;-65
2023/12/10 01:24:23;;;;;;;19.02;3.20;;;8.30;99.90;;;;;;5030155;28;20064;-65
2023/12/10 01:26:49;;;;;;;16.27;3.55;;;8.10;99.90;;;;;;5013874;28;20050;-65
2023/12/10 01:29:16;;;;;;;16.48;3.45;;;8.20;99.90;;;;;;5030906;28;20347;-65
2023/12/10 01:31:42;;;;;;;17.92;4.10;;;8.10;99.90;;;;;;5047200;28;20057;-65
2023/12/10 01:34:08;;;;;;;13.25;3.15;;;8.20;99.90;;;;;;5030227;28;20068;-65
2023/12/10 01:36:35;;;;;;;18.92;3.75;;;8.20;99.90;;;;;;5047088;28;20059;-65
2023/12/10 01:39:01;;;;;;;13.43;4.03;;;8.00;99.90;;;;;;5030149;28;20058;-65
2023/12/10 01:41:27;;;;;;;20.20;3.78;;;8.00;99.90;;;;;;5030190;28;20057;-65
2023/12/10 01:43:54;;;;;;;16.38;3.05;;;8.20;99.90;;;;;;5030179;28;20092;-65
2023/12/10 01:46:21;;;;;;;14.85;3.15;;;8.20;99.90;;;;;;5030487;28;20046;-65
2023/12/10 01:48:50;;;;;;;16.02;3.80;;;8.20;99.90;;;;;;5029974;28;20060;-64
2023/12/10 01:51:18;;;;;;;14.00;3.22;;;8.30;99.90;;;;;;5030339;28;20046;-65
2023/12/10 01:53:44;;;;;;;16.02;3.15;;;8.20;99.90;;;;;;5031146;28;20132;-65
2023/12/10 01:56:11;;;;;;;16.08;3.28;;;8.00;99.90;;;;;;5031265;28;20057;-65
2023/12/10 01:58:38;;;;;;;15.05;3.33;;;7.90;99.90;;;;;;5030236;28;20481;-65
2023/12/10 02:01:05;;;;;;;20.83;4.10;;;7.90;99.90;;;;;;5030040;28;20601;-66
2023/12/10 02:03:33;;;;;;;18.45;3.70;;;8.00;99.90;;;;;;5029721;28;20159;-66
2023/12/10 02:05:59;;;;;;;18.60;3.90;;;8.00;99.90;;;;;;5030070;28;20059;-65
2023/12/10 02:08:26;;;;;;;24.13;4.25;;;8.10;99.90;;;;;;5029906;28;20053;-64
2023/12/10 02:10:52;;;;;;;16.33;3.58;;;8.20;99.90;;;;;;5046718;28;20052;-65
2023/12/10 02:13:18;;;;;;;12.65;3.25;;;8.00;99.90;;;;;;5029685;28;20053;-65
2023/12/10 02:15:45;;;;;;;17.75;3.47;;;8.10;99.90;;;;;;5030071;28;20064;-65
2023/12/10 02:18:11;;;;;;;14.27;3.50;;;7.90;99.90;;;;;;5029941;28;20454;-65
2023/12/10 02:20:38;;;;;;;22.70;4.20;;;8.20;99.90;;;;;;5029435;28;20393;-65
2023/12/10 02:23:16;;;;;;;21.27;4.25;;;8.10;99.90;;;;;;5029207;28;20067;-65
2023/12/10 02:25:42;;;;;;;18.98;4.15;;;8.20;99.90;;;;;;5030844;28;20651;-65
2023/12/10 02:28:10;;;;;;;17.27;3.60;;;8.20;99.90;;;;;;5029169;28;20045;-65
2023/12/10 02:30:37;;;;;;;15.77;3.38;;;7.90;99.90;;;;;;5029222;28;20529;-65
2023/12/10 02:33:03;;;;;;;15.10;3.50;;;7.90;99.90;;;;;;5029249;28;20046;-64
2023/12/10 02:35:29;;;;;;;17.70;4.35;;;8.10;99.90;;;;;;5046611;28;20060;-65
2023/12/10 02:37:56;;;;;;;17.85;3.50;;;7.90;99.90;;;;;;5029178;28;20053;-65
2023/12/10 02:40:22;;;;;;;17.48;4.15;;;8.10;99.90;;;;;;5029602;28;20049;-65
2023/12/10 02:42:48;;;;;;;20.40;4.18;;;7.80;99.90;;;;;;5029006;28;20064;-65
2023/12/10 02:45:15;;;;;;;19.17;3.75;;;8.10;99.90;;;;;;5029208;28;20051;-65
2023/12/10 02:47:42;;;;;;;19.05;3.72;;;8.00;99.90;;;;;;5028873;28;20455;-65
2023/12/10 02:50:09;;;;;;;20.55;3.70;;;8.10;99.90;;;;;;5028907;28;20045;-66
2023/12/10 02:52:39;;;;;;;22.92;4.60;;;7.90;99.90;;;;;;5029862;28;20080;-66
2023/12/10 02:55:06;;;;;;;17.90;4.18;;;7.90;99.90;;;;;;5028695;28;20111;-65
2023/12/10 02:57:32;;;;;;;14.32;3.85;;;7.90;99.90;;;;;;5028811;28;20060;-65
2023/12/10 03:00:00;;;;;;;16.98;3.75;;;8.00;99.90;;;;;;5029215;28;20115;-65
2023/12/10 03:02:26;;;;;;;17.80;4.47;;;8.00;99.90;;;;;;5028750;28;20080;-65
2023/12/10 03:04:54;;;;;;;18.13;3.10;;;8.00;99.90;;;;;;5028574;28;20045;-65
2023/12/10 03:07:20;;;;;;;15.27;4.35;;;7.70;99.90;;;;;;5028823;28;20401;-65
2023/12/10 03:09:46;;;;;;;11.65;3.17;;;8.10;99.90;;;;;;5029186;28;20060;-64
2023/12/10 03:12:13;;;;;;;15.95;3.75;;;7.80;99.90;;;;;;5045868;28;20049;-65
2023/12/10 03:14:40;;;;;;;17.70;3.65;;;8.10;99.90;;;;;;5028383;28;20063;-66
2023/12/10 03:17:06;;;;;;;12.40;3.33;;;8.00;99.90;;;;;;5045085;28;20056;-65
2023/12/10 03:19:32;;;;;;;14.18;3.67;;;7.90;99.90;;;;;;5028756;28;20045;-64
2023/12/10 03:21:58;;;;;;;14.60;3.20;;;8.10;99.90;;;;;;5029801;28;20045;-66
2023/12/10 03:24:25;;;;;;;20.83;3.45;;;8.00;99.90;;;;;;5028229;28;20064;-66
2023/12/10 03:26:51;;;;;;;16.30;3.83;;;8.00;99.90;;;;;;5028706;28;20422;-65
2023/12/10 03:29:17;;;;;;;15.05;3.92;;;7.80;99.90;;;;;;5028742;28;20413;-65
2023/12/10 03:31:44;;;;;;;18.10;3.53;;;7.90;99.90;;;;;;5028596;28;20045;-65
2023/12/10 03:34:10;;;;;;;19.40;3.95;;;8.00;99.90;;;;;;5028465;28;20413;-65
2023/12/10 03:36:37;;;;;;;21.70;3.90;;;8.00;99.90;;;;;;5028678;28;20054;-65
2023/12/10 03:39:03;;;;;;;20.65;4.18;;;7.90;99.90;;;;;;5028632;28;20057;-65
2023/12/10 03:41:31;;;;;;;15.43;3.50;;;8.00;99.90;;;;;;5044952;28;20505;-65
2023/12/10 03:43:57;;;;;;;19.40;3.78;;;7.70;99.90;;;;;;5028283;28;20041;-66
2023/12/10 03:46:23;;;;;;;14.45;3.83;;;8.10;99.90;;;;;;5044953;28;20426;-65
2023/12/10 03:48:51;;;;;;;17.90;4.07;;;7.80;99.90;;;;;;5028098;28;20063;-65
2023/12/10 03:51:17;;;;;;;21.45;4.28;;;8.00;99.90;;;;;;5037246;28;20060;-65
2023/12/10 03:53:44;;;;;;;17.88;3.72;;;7.80;99.90;;;;;;5044706;28;20092;-65
2023/12/10 03:56:11;;;;;;;19.02;3.83;;;7.70;99.90;;;;;;5028513;28;20085;-65
2023/12/10 03:58:37;;;;;;;17.55;3.50;;;7.90;99.90;;;;;;5033399;28;20076;-65
2023/12/10 04:01:05;;;;;;;23.38;4.07;;;7.70;99.90;;;;;;5028484;28;20380;-65
2023/12/10 04:03:32;;;;;;;19.23;4.50;;;7.70;99.90;;;;;;5027732;28;20049;-65
2023/12/10 04:06:00;;;;;;;23.67;4.20;;;7.80;99.90;;;;;;5028168;28;20061;-64
2023/12/10 04:08:26;;;;;;;20.70;3.75;;;7.80;99.90;;;;;;5027936;28;20045;-66
2023/12/10 04:10:53;;;;;;;17.67;4.30;;;7.80;99.90;;;;;;5028144;28;20056;-65
2023/12/10 04:13:19;;;;;;;19.00;3.83;;;8.00;99.90;;;;;;5027882;28;20042;-65
2023/12/10 04:15:46;;;;;;;15.82;4.25;;;8.20;99.90;;;;;;5027896;28;20072;-65
2023/12/10 04:18:14;;;;;;;21.05;4.20;;;8.20;99.90;;;;;;5027846;28;20068;-65
2023/12/10 04:20:44;;;;;;;17.90;3.90;;;8.10;99.90;;;;;;5028155;28;20045;-65
2023/12/10 04:23:10;;;;;;;24.30;4.43;;;7.90;99.90;;;;;;5044007;28;20366;-65
2023/12/10 04:25:37;;;;;;;23.63;4.20;;;8.20;99.90;;;;;;5027939;28;20050;-65
2023/12/10 04:28:03;;;;;;;19.85;3.83;;;8.10;99.90;;;;;;5027764;28;20132;-65
2023/12/10 04:30:31;;;;;;;24.88;4.50;;;8.10;99.90;;;;;;5028137;28;20052;-65
2023/12/10 04:32:57;;;;;;;16.70;4.30;;;8.20;99.90;;;;;;5027343;28;20062;-65
2023/12/10 04:35:23;;;;;;;20.00;4.47;;;8.10;99.90;;;;;;5027866;28;20054;-65
2023/12/10 04:37:50;;;;;;;17.60;5.10;;;8.30;99.90;;;;;;5026865;28;20046;-65
2023/12/10 04:40:16;;;;;;;26.88;6.50;;;7.90;99.90;;;;;;5028329;28;20056;-65
2023/12/10 04:42:42;;;;;;;17.42;4.45;;;8.30;99.90;;;;;;5027598;28;20138;-65
2023/12/10 04:45:09;;;;;;;22.33;5.45;;;7.90;99.90;;;;;;5027745;28;20436;-65
2023/12/10 04:47:38;;;;;;;26.92;6.55;;;8.20;99.90;;;;;;5028772;28;20049;-66
2023/12/10 04:50:05;;;;;;;21.45;4.60;;;8.10;99.90;;;;;;5044192;28;20493;-65
2023/12/10 04:52:32;;;;;;;24.17;5.10;;;7.90;99.90;;;;;;5027584;28;20141;-65
2023/12/10 04:54:59;;;;;;;25.17;4.90;;;8.20;99.90;;;;;;5014318;28;20052;-65
2023/12/10 04:57:25;;;;;;;21.95;5.57;;;7.90;99.90;;;;;;5031087;28;20059;-65
2023/12/10 04:59:52;;;;;;;30.80;5.90;;;7.80;99.90;;;;;;5031595;28;20454;-65
2023/12/10 05:02:18;;;;;;;29.95;6.35;;;8.10;99.90;;;;;;5031139;28;20488;-64
2023/12/10 05:04:45;;;;;;;27.77;4.93;;;8.10;99.90;;;;;;5031050;28;20439;-64
2023/12/10 05:07:11;;;;;;;19.77;5.15;;;7.90;99.90;;;;;;5030989;28;20124;-65
2023/12/10 05:09:37;;;;;;;18.83;4.40;;;7.90;99.90;;;;;;5031172;28;20049;-64
2023/12/10 05:12:04;;;;;;;21.45;4.65;;;7.80;99.90;;;;;;5031117;28;20049;-65
2023/12/10 05:14:30;;;;;;;21.40;4.75;;;8.10;99.90;;;;;;5030710;28;20655;-65
2023/12/10 05:16:57;;;;;;;29.58;5.15;;;8.20;99.90;;;;;;5030794;28;20041;-65
2023/12/10 05:19:23;;;;;;;24.33;5.40;;;8.10;99.90;;;;;;5047236;28;20054;-65
2023/12/10 05:21:49;;;;;;;23.80;6.05;;;7.80;99.90;;;;;;5031150;28;20057;-65
2023/12/10 05:24:16;;;;;;;27.33;5.60;;;8.20;99.90;;;;;;5063754;28;20068;-65
2023/12/10 05:26:42;;;;;;;21.00;4.80;;;8.10;99.90;;;;;;5014798;28;20057;-65
2023/12/10 05:29:09;;;;;;;25.88;5.38;;;8.20;99.90;;;;;;5063822;28;20049;-64
2023/12/10 05:31:38;;;;;;;24.42;4.82;;;8.20;99.90;;;;;;5030905;28;20065;-64
2023/12/10 05:34:05;;;;;;;24.80;5.15;;;7.90;99.90;;;;;;5063682;28;20132;-65
2023/12/10 05:36:31;;;;;;;33.25;5.57;;;8.00;99.90;;;;;;5014605;28;20100;-65
2023/12/10 05:38:57;;;;;;;30.38;6.45;;;7.80;99.90;;;;;;5030179;28;20064;-65
2023/12/10 05:41:24;;;;;;;24.40;4.78;;;8.20;99.90;;;;;;5030527;28;20046;-65
2023/12/10 05:43:50;;;;;;;30.65;5.38;;;8.30;99.90;;;;;;5063406;28;20525;-65
2023/12/10 05:46:17;;;;;;;23.50;5.47;;;8.30;99.90;;;;;;5063924;28;20053;-65
2023/12/10 05:48:43;;;;;;;22.58;4.97;;;8.30;99.90;;;;;;5063407;28;20057;-65
2023/12/10 05:51:09;;;;;;;23.48;5.53;;;8.30;99.90;;;;;;5046991;28;20119;-65
2023/12/10 05:53:36;;;;;;;26.48;6.15;;;8.00;99.90;;;;;;5030195;28;20375;-65
2023/12/10 05:56:02;;;;;;;26.13;6.95;;;8.10;99.90;;;;;;5030228;28;20053;-65
2023/12/10 05:58:29;;;;;;;33.78;6.03;;;8.20;99.90;;;;;;5030295;28;20060;-66
2023/12/10 06:00:55;;;;;;;28.58;5.63;;;8.30;99.90;;;;;;5030262;28;20049;-65
2023/12/10 06:03:24;;;;;;;29.15;5.82;;;8.00;99.90;;;;;;5030086;28;20050;-65
2023/12/10 06:05:51;;;;;;;24.83;5.45;;;8.10;99.90;;;;;;5028638;28;20050;-65
2023/12/10 06:08:17;;;;;;;23.52;4.82;;;7.90;99.90;;;;;;5029948;28;20060;-65
2023/12/10 06:10:43;;;;;;;23.08;5.50;;;8.20;99.90;;;;;;5030544;28;20136;-65
2023/12/10 06:13:10;;;;;;;25.38;4.47;;;7.90;99.90;;;;;;5029692;28;20482;-65
2023/12/10 06:15:36;;;;;;;25.20;5.18;;;8.10;99.90;;;;;;5030090;28;20321;-65
2023/12/10 06:18:04;;;;;;;20.73;4.45;;;8.30;99.90;;;;;;5029713;28;20053;-65
2023/12/10 06:20:31;;;;;;;23.52;5.13;;;7.90;99.90;;;;;;5046609;28;20152;-64
2023/12/10 06:22:57;;;;;;;22.77;5.75;;;7.90;99.90;;;;;;5012933;28;20140;-65
2023/12/10 06:25:23;;;;;;;26.10;4.95;;;8.20;99.90;;;;;;5046331;28;20045;-65
2023/12/10 06:27:50;;;;;;;22.58;5.07;;;8.30;99.90;;;;;;5029326;28;20136;-64
2023/12/10 06:30:16;;;;;;;15.68;4.05;;;8.30;99.90;;;;;;5046595;28;20726;-65
2023/12/10 06:32:43;;;;;;;16.95;3.75;;;8.40;99.90;;;;;;5029762;28;20373;-65
2023/12/10 06:35:09;;;;;;;25.70;4.90;;;8.20;99.90;;;;;;5030084;28;20413;-65
2023/12/10 06:37:37;;;;;;;22.60;4.28;;;8.30;99.90;;;;;;5029068;28;20064;-65
2023/12/10 06:40:05;;;;;;;18.05;3.83;;;8.60;99.90;;;;;;5029412;28;20422;-65
2023/12/10 06:42:33;;;;;;;19.13;3.80;;;8.20;99.90;;;;;;5029224;28;20061;-65
2023/12/10 06:45:00;;;;;;;18.88;4.25;;;8.60;99.90;;;;;;5029194;28;20064;-65
2023/12/10 06:47:26;;;;;;;19.80;4.45;;;8.40;99.90;;;;;;5029237;28;20053;-65
2023/12/10 06:49:53;;;;;;;20.60;3.92;;;8.20;99.90;;;;;;5045772;28;20053;-66
2023/12/10 06:52:19;;;;;;;26.23;4.32;;;8.50;99.90;;;;;;5045817;28;20051;-66
2023/12/10 06:54:45;;;;;;;20.30;3.85;;;8.20;99.90;;;;;;5012840;28;20098;-66
2023/12/10 06:57:12;;;;;;;22.38;4.20;;;8.40;99.90;;;;;;5045779;28;20076;-66
2023/12/10 06:59:38;;;;;;;17.00;4.05;;;8.40;99.90;;;;;;5028907;28;20080;-65
2023/12/10 07:02:04;;;;;;;12.82;3.38;;;8.50;99.90;;;;;;5062316;28;20056;-65
2023/12/10 07:04:31;;;;;;;20.70;4.32;;;8.20;99.90;;;;;;5028786;28;20428;-65
2023/12/10 07:06:57;;;;;;;18.35;3.45;;;8.40;99.90;;;;;;5028778;28;20057;-65
2023/12/10 07:09:23;;;;;;;16.85;2.65;;;8.00;99.90;;;;;;5028032;28;20051;-65
2023/12/10 07:11:51;;;;;;;14.50;3.85;;;8.40;99.90;;;;;;5028382;28;20055;-65
2023/12/10 07:14:17;;;;;;;13.13;3.85;;;8.40;99.90;;;;;;5037857;28;20053;-65
2023/12/10 07:16:44;;;;;;;13.15;2.85;;;8.30;99.90;;;;;;5032839;28;20041;-65
2023/12/10 07:19:10;;;;;;;9.95;3.10;;;7.90;99.90;;;;;;5019843;28;20481;-65
2023/12/10 07:21:38;;;;;;;14.57;2.67;;;8.10;99.90;;;;;;5037909;28;20050;-65
2023/12/10 07:24:04;;;;;;;11.43;2.80;;;8.00;99.90;;;;;;5027390;28;20049;-66
2023/12/10 07:26:31;;;;;;;14.77;2.67;;;8.30;99.90;;;;;;5038617;28;20049;-65
2023/12/10 07:28:57;;;;;;;16.60;3.10;;;8.30;99.90;;;;;;5037671;28;20037;-65
2023/12/10 07:31:24;;;;;;;13.45;3.10;;;7.90;99.90;;;;;;5017924;28;20052;-66
2023/12/10 07:33:50;;;;;;;17.13;2.90;;;7.90;99.90;;;;;;5034408;28;20050;-66
2023/12/10 07:36:17;;;;;;;15.63;3.08;;;8.00;99.90;;;;;;5027973;28;20056;-65
2023/12/10 07:38:44;;;;;;;20.00;4.43;;;7.70;99.90;;;;;;5019622;28;20425;-65
2023/12/10 07:41:10;;;;;;;20.85;6.25;;;7.70;99.90;;;;;;5061765;28;20057;-66
2023/12/10 07:43:36;;;;;;;14.35;3.55;;;8.00;99.90;;;;;;5028438;28;20519;-66
2023/12/10 07:46:03;;;;;;;17.40;3.72;;;7.90;99.90;;;;;;5061578;28;20052;-66
2023/12/10 07:48:29;;;;;;;17.55;3.28;;;7.60;99.90;;;;;;5030660;28;20051;-66
2023/12/10 07:50:56;;;;;;;17.40;4.05;;;7.70;99.90;;;;;;5048634;28;20132;-65
2023/12/10 07:53:22;;;;;;;28.50;4.82;;;7.80;99.90;;;;;;5031619;28;20049;-65
2023/12/10 07:55:48;;;;;;;32.28;6.05;;;7.70;99.90;;;;;;5031822;28;20048;-65
2023/12/10 07:58:15;;;;;;;22.65;5.72;;;7.70;99.90;;;;;;5031795;28;20069;-66
2023/12/10 08:00:46;;;;;;;25.17;4.60;;;7.70;99.90;;;;;;5031856;28;20049;-66
2023/12/10 08:03:14;;;;;;;31.85;5.60;;;7.70;99.90;;;;;;5031691;28;20053;-66
2023/12/10 08:05:40;;;;;;;33.28;6.60;;;8.10;99.90;;;;;;5032098;28;20365;-66
2023/12/10 08:08:07;;;;;;;29.23;6.85;;;7.90;99.90;;;;;;5031295;28;20424;-64
2023/12/10 08:10:33;;;;;;;30.10;4.80;;;8.10;99.90;;;;;;5027868;28;20054;-64
2023/12/10 08:12:59;;;;;;;29.77;5.95;;;8.10;99.90;;;;;;5011857;28;20488;-65
2023/12/10 08:15:26;;;;;;;24.67;5.05;;;8.10;99.90;;;;;;5045037;28;20053;-65
2023/12/10 08:17:52;;;;;;;28.38;6.15;;;8.20;99.90;;;;;;5018763;28;20041;-65
2023/12/10 08:20:19;;;;;;;32.17;5.55;;;8.30;99.90;;;;;;5031655;28;20049;-65
2023/12/10 08:22:47;;;;;;;32.22;5.82;;;8.00;99.90;;;;;;5031893;28;20067;-65
2023/12/10 08:25:14;;;;;;;28.13;5.50;;;8.30;99.90;;;;;;5049431;28;20041;-65
2023/12/10 08:27:41;;;;;;;29.48;5.65;;;8.20;99.90;;;;;;5031520;28;20056;-65
2023/12/10 08:30:09;;;;;;;26.80;6.05;;;8.00;99.90;;;;;;5018570;28;20628;-65
2023/12/10 08:32:35;;;;;;;25.05;6.15;;;7.90;99.90;;;;;;5035175;28;20053;-65
2023/12/10 08:35:02;;;;;;;23.42;4.22;;;8.10;99.90;;;;;;5035067;28;20053;-65
2023/12/10 08:37:28;;;;;;;27.70;5.30;;;8.20;99.90;;;;;;5034955;28;20127;-65
2023/12/10 08:39:54;;;;;;;25.10;5.00;;;8.00;99.90;;;;;;5033303;28;20040;-65
2023/12/10 08:42:21;;;;;;;28.80;5.53;;;7.90;99.90;;;;;;5035911;28;20062;-66
2023/12/10 08:44:47;;;;;;;26.83;4.25;;;8.20;99.90;;;;;;5035033;28;20053;-65
2023/12/10 08:47:13;;;;;;;26.08;5.63;;;8.00;99.90;;;;;;5035558;28;20483;-65
2023/12/10 08:49:40;;;;;;;20.25;4.75;;;8.00;99.90;;;;;;5033642;28;20604;-67
2023/12/10 08:52:06;;;;;;;25.73;5.90;;;8.30;99.90;;;;;;5035278;28;20052;-65
2023/12/10 08:54:32;;;;;;;26.30;5.38;;;8.20;99.90;;;;;;5032727;28;20740;-65
2023/12/10 08:56:59;;;;;;;24.95;4.97;;;7.90;99.90;;;;;;5046059;28;20052;-66
2023/12/10 08:59:25;;;;;;;31.25;5.68;;;8.20;99.90;;;;;;5037249;28;20351;-66
2023/12/10 09:01:52;;;;;;;23.35;5.40;;;8.20;99.90;;;;;;5037159;28;20142;-64
2023/12/10 09:04:18;;;;;;;27.73;5.15;;;8.20;99.90;;;;;;5036255;28;20067;-65
2023/12/10 09:06:45;;;;;;;23.70;4.72;;;8.20;99.90;;;;;;5053372;28;20107;-65
2023/12/10 09:09:11;;;;;;;28.23;5.15;;;8.10;99.90;;;;;;5036945;28;20049;-65
2023/12/10 09:11:37;;;;;;;20.80;4.95;;;8.00;99.90;;;;;;5037546;28;20211;-65
2023/12/10 09:14:04;;;;;;;31.17;5.22;;;8.20;99.90;;;;;;5037095;28;20059;-66
2023/12/10 09:16:30;;;;;;;24.65;5.75;;;8.30;99.90;;;;;;5053682;28;20049;-65
2023/12/10 09:18:56;;;;;;;18.15;4.60;;;7.90;99.90;;;;;;5037019;28;20059;-66
2023/12/10 09:21:23;;;;;;;17.90;5.47;;;7.90;99.90;;;;;;5053327;28;20071;-65
2023/12/10 09:23:49;;;;;;;24.05;4.72;;;8.30;99.90;;;;;;5035859;28;20057;-65
2023/12/10 09:26:15;;;;;;;22.40;5.07;;;8.00;99.90;;;;;;5053739;28;20041;-65
2023/12/10 09:28:42;;;;;;;21.63;5.00;;;8.20;99.90;;;;;;5037302;28;20060;-65
2023/12/10 09:31:08;;;;;;;24.23;5.15;;;8.40;99.90;;;;;;5037230;28;20044;-65
2023/12/10 09:33:34;;;;;;;19.38;5.88;;;8.00;99.90;;;;;;5036687;28;20053;-65
2023/12/10 09:36:01;;;;;;;22.60;4.72;;;8.00;99.90;;;;;;5036539;28;20389;-65
2023/12/10 09:38:27;;;;;;;24.83;5.43;;;8.40;99.90;;;;;;5036755;28;20053;-65
2023/12/10 09:40:53;;;;;;;18.58;4.20;;;8.40;99.90;;;;;;5053032;28;20056;-65
2023/12/10 09:43:19;;;;;;;21.65;4.72;;;8.20;99.90;;;;;;5034712;28;20060;-65
2023/12/10 09:45:46;;;;;;;21.88;5.82;;;8.30;99.90;;;;;;5052747;28;20048;-65
2023/12/10 09:48:12;;;;;;;20.88;3.90;;;8.40;99.90;;;;;;5036379;28;20457;-66
2023/12/10 09:50:40;;;;;;;20.92;7.05;;;8.60;99.90;;;;;;5036569;28;20429;-65
2023/12/10 09:53:07;;;;;;;22.95;4.70;;;8.60;99.90;;;;;;5036336;28;20057;-66
2023/12/10 09:55:35;;;;;;;26.30;5.00;;;8.30;99.90;;;;;;5036492;28;20135;-65
2023/12/10 09:58:02;;;;;;;23.30;5.18;;;8.30;99.90;;;;;;5036733;28;20049;-65
2023/12/10 10:00:29;;;;;;;20.00;5.03;;;8.60;99.90;;;;;;5053424;28;20068;-66
2023/12/10 10:03:02;;;;;;;23.70;5.50;;;8.50;99.90;;;;;;5036653;28;20056;-65
2023/12/10 10:05:28;;;;;;;18.98;4.28;;;8.30;99.90;;;;;;5036167;28;20056;-65
2023/12/10 10:07:55;;;;;;;20.73;4.78;;;8.70;99.90;;;;;;5053452;28;20400;-65
2023/12/10 10:10:22;;;;;;;21.40;4.97;;;8.70;99.90;;;;;;5052577;28;20492;-66
2023/12/10 10:12:48;;;;;;;24.73;4.70;;;8.60;99.90;;;;;;5035217;28;20037;-65
2023/12/10 10:15:25;;;;;;;20.08;5.15;;;8.50;99.90;;;;;;5035331;28;20389;-65
2023/12/10 10:17:52;;;;;;;20.48;4.32;;;8.80;99.90;;;;;;5066902;28;20055;-65
2023/12/10 10:20:20;;;;;;;19.80;4.57;;;8.80;99.90;;;;;;5069253;28;20151;-65
2023/12/10 10:22:47;;;;;;;21.83;4.07;;;8.80;99.90;;;;;;5035585;28;20049;-66
2023/12/10 10:25:13;;;;;;;20.83;5.00;;;8.80;99.90;;;;;;5049119;28;20041;-66
2023/12/10 10:27:40;;;;;;;25.05;5.20;;;8.80;99.90;;;;;;5020288;28;20450;-66
2023/12/10 10:30:07;;;;;;;15.15;4.40;;;8.50;99.90;;;;;;5052317;28;20480;-66
2023/12/10 10:32:34;;;;;;;20.52;4.32;;;8.60;99.90;;;;;;5034114;28;20055;-67
2023/12/10 10:35:04;;;;;;;23.27;4.05;;;8.80;99.90;;;;;;5035368;28;20406;-66
2023/12/10 10:37:30;;;;;;;23.80;5.18;;;8.90;99.90;;;;;;5035500;28;21475;-66
2023/12/10 10:39:56;;;;;;;21.33;4.78;;;8.80;99.90;;;;;;5034775;28;20053;-66
2023/12/10 10:42:24;;;;;;;16.45;3.70;;;8.90;99.90;;;;;;5052254;28;20473;-67
2023/12/10 10:44:51;;;;;;;18.33;5.00;;;8.80;99.90;;;;;;5052124;28;20053;-66
2023/12/10 10:47:18;;;;;;;21.98;4.57;;;8.60;99.90;;;;;;5051800;28;20052;-65
2023/12/10 10:49:57;;;;;;;20.45;3.83;;;8.90;99.90;;;;;;5048488;28;20068;-66
2023/12/10 10:52:27;;;;;;;18.10;4.45;;;8.90;99.90;;;;;;5014583;28;20407;-66
2023/12/10 10:54:55;;;;;;;22.33;4.65;;;8.80;99.90;;;;;;5019304;28;20462;-65
2023/12/10 10:57:37;;;;;;;20.90;4.30;;;8.80;99.90;;;;;;5035176;28;20041;-65
2023/12/10 11:00:18;;;;;;;17.52;4.43;;;8.90;99.90;;;;;;5033452;28;20335;-65
2023/12/10 11:02:53;;;;;;;20.00;4.07;;;8.80;99.90;;;;;;5049354;28;20056;-66
2023/12/10 11:05:35;;;;;;;20.67;4.18;;;8.80;99.90;;;;;;5033598;28;20059;-66
2023/12/10 11:08:06;;;;;;;19.38;4.40;;;8.70;99.90;;;;;;5034131;28;20445;-65
2023/12/10 11:10:34;;;;;;;23.48;3.75;;;8.80;99.90;;;;;;5035496;28;20140;-65
2023/12/10 11:13:01;;;;;;;17.48;3.40;;;8.90;99.90;;;;;;5048043;28;20426;-66
2023/12/10 11:15:28;;;;;;;21.35;3.97;;;8.90;99.90;;;;;;5050345;28;20056;-65
2023/12/10 11:17:56;;;;;;;23.88;4.85;;;9.00;99.90;;;;;;5033724;28;20369;-63
2023/12/10 11:20:41;;;;;;;17.38;4.30;;;8.80;99.90;;;;;;5063877;28;20052;-64
2023/12/10 11:23:13;;;;;;;25.45;3.95;;;9.00;99.90;;;;;;5031395;28;20057;-64
2023/12/10 11:25:41;;;;;;;21.13;4.45;;;8.90;99.90;;;;;;5032242;28;20045;-63
2023/12/10 11:28:17;;;;;;;20.42;3.50;;;9.00;99.90;;;;;;5033224;28;20060;-63
2023/12/10 11:30:45;;;;;;;17.40;3.45;;;8.90;99.90;;;;;;5031245;28;20324;-63
2023/12/10 11:33:13;;;;;;;17.25;4.63;;;8.90;99.90;;;;;;5031930;28;20052;-63
2023/12/10 11:35:41;;;;;;;18.13;4.30;;;9.00;99.90;;;;;;5031986;28;20045;-63
2023/12/10 11:38:08;;;;;;;16.30;3.63;;;9.00;99.90;;;;;;5031679;28;20106;-63
2023/12/10 11:40:35;;;;;;;19.85;3.83;;;8.90;99.90;;;;;;5032550;28;20049;-63
2023/12/10 11:43:06;;;;;;;18.10;4.78;;;8.90;99.90;;;;;;5016027;28;20044;-64
2023/12/10 11:45:33;;;;;;;20.25;4.32;;;9.00;99.90;;;;;;5032683;28;20367;-63
2023/12/10 11:47:59;;;;;;;18.40;3.78;;;8.80;99.90;;;;;;5032173;28;20056;-63
2023/12/10 11:50:25;;;;;;;21.25;4.07;;;9.10;99.90;;;;;;5028991;28;20056;-65
2023/12/10 11:52:52;;;;;;;17.65;4.15;;;9.10;99.90;;;;;;5045339;28;20041;-65
2023/12/10 11:55:19;;;;;;;13.05;3.67;;;9.00;99.90;;;;;;5029343;28;20060;-65
2023/12/10 11:57:45;;;;;;;19.98;3.85;;;9.00;99.90;;;;;;5028893;28;20056;-65
2023/12/10 12:00:12;;;;;;;12.48;3.97;;;9.00;99.90;;;;;;5029289;28;20050;-65
2023/12/10 12:02:46;;;;;;;12.35;3.75;;;9.10;99.90;;;;;;5030189;28;20054;-65
2023/12/10 12:05:15;;;;;;;15.75;4.03;;;9.10;99.90;;;;;;5033464;28;20055;-65
2023/12/10 12:07:42;;;;;;;20.27;3.97;;;9.00;99.90;;;;;;5032734;28;20045;-65
2023/12/10 12:10:11;;;;;;;20.83;4.13;;;9.10;99.90;;;;;;5033092;28;20057;-65
2023/12/10 12:12:40;;;;;;;18.80;3.60;;;9.10;99.90;;;;;;5032564;28;20049;-65
2023/12/10 12:15:07;;;;;;;14.00;3.88;;;9.10;99.90;;;;;;5033085;28;20096;-64
2023/12/10 12:17:35;;;;;;;21.13;4.40;;;9.10;99.90;;;;;;5032411;28;20373;-64
2023/12/10 12:20:26;;;;;;;14.25;3.22;;;9.00;99.90;;;;;;5032876;28;20049;-65
2023/12/10 12:22:52;;;;;;;14.80;3.08;;;9.00;99.90;;;;;;5032340;28;20053;-64
2023/12/10 12:25:19;;;;;;;18.33;4.03;;;8.90;99.90;;;;;;5049159;28;20479;-64
2023/12/10 12:27:46;;;;;;;13.68;3.17;;;9.00;99.90;;;;;;5032395;28;20065;-65
2023/12/10 12:30:13;;;;;;;10.98;2.72;;;8.90;99.90;;;;;;5032809;28;20450;-65
2023/12/10 12:32:39;;;;;;;16.05;3.30;;;8.90;99.90;;;;;;5031843;28;20152;-64
2023/12/10 12:35:09;;;;;;;11.98;2.85;;;8.90;99.90;;;;;;5033234;28;20045;-65
2023/12/10 12:37:36;;;;;;;15.73;3.15;;;9.00;99.90;;;;;;5047712;28;20062;-64
2023/12/10 12:40:03;;;;;;;15.52;3.22;;;9.10;99.90;;;;;;5032559;28;20049;-64
2023/12/10 12:42:29;;;;;;;13.77;3.95;;;9.10;99.90;;;;;;5032546;28;20061;-64
2023/12/10 12:44:56;;;;;;;12.27;3.35;;;9.00;99.90;;;;;;5032473;28;20064;-65
2023/12/10 12:47:22;;;;;;;15.13;3.03;;;9.10;99.90;;;;;;5031837;28;20053;-64